Time;durP1;ratioP1;P1;durP2;ratioP2;P2;SDS_P1;SDS_P2;PMS_P1;PMS_P2;Temp;Humidity;BMP_temperature;BMP_pressure;BME280_temperature;BME280_humidity;BME280_pressure;Samples;Min_cycle;Max_cycle;Signal;HPM_P1;HPM_P2
2022/12/03 00:01:11;;;;;;;;;37.00;33.50;;;;;6.43;63.75;101227.59;6306317;22;45647;-47
2022/12/03 00:03:36;;;;;;;;;27.00;25.50;;;;;6.44;63.72;101224.13;6305276;22;45294;-46
2022/12/03 00:06:01;;;;;;;;;40.00;28.50;;;;;6.43;63.90;101224.13;6307775;22;45224;-50
2022/12/03 00:08:27;;;;;;;;;40.25;31.50;;;;;6.44;63.96;101216.31;6309610;22;45239;-47
2022/12/03 00:10:52;;;;;;;;;33.00;30.25;;;;;6.46;63.69;101217.19;6309224;22;45081;-46
2022/12/03 00:13:17;;;;;;;;;42.75;33.75;;;;;6.44;63.90;101218.91;6308846;22;45187;-48
2022/12/03 00:15:43;;;;;;;;;37.75;31.50;;;;;6.46;63.85;101214.56;6308131;22;45093;-52
2022/12/03 00:18:08;;;;;;;;;49.25;35.25;;;;;6.46;63.74;101219.78;6307937;22;45234;-50
2022/12/03 00:20:33;;;;;;;;;37.50;34.50;;;;;6.46;63.80;101214.56;6307969;22;46949;-47
2022/12/03 00:22:59;;;;;;;;;44.25;34.00;;;;;6.48;63.82;101214.63;6308373;22;45093;-49
2022/12/03 00:25:24;;;;;;;;;36.50;31.25;;;;;6.44;63.93;101205.88;6307726;22;45183;-48
2022/12/03 00:27:49;;;;;;;;;36.25;30.50;;;;;6.48;63.85;101212.88;6307578;22;46797;-49
2022/12/03 00:30:15;;;;;;;;;38.75;33.50;;;;;6.48;63.61;101215.47;6308145;22;45211;-49
2022/12/03 00:32:40;;;;;;;;;40.75;31.25;;;;;6.48;63.67;101212.88;6306843;22;45305;-50
2022/12/03 00:35:06;;;;;;;;;31.75;30.00;;;;;6.46;64.07;101206.75;6308350;22;45373;-49
2022/12/03 00:37:33;;;;;;;;;34.00;25.00;;;;;6.50;63.84;101219.00;6308875;22;46398;-47
2022/12/03 00:39:59;;;;;;;;;44.50;31.75;;;;;6.50;63.80;101221.59;6308318;22;45322;-47
2022/12/03 00:42:25;;;;;;;;;30.75;25.75;;;;;6.49;63.92;101211.13;6308694;22;45264;-48
2022/12/03 00:44:50;;;;;;;;;31.75;29.25;;;;;6.43;63.77;101185.84;6308208;22;45196;-47
2022/12/03 00:47:15;;;;;;;;;43.75;36.75;;;;;6.53;63.77;101212.03;6308323;22;46943;-47
2022/12/03 00:49:41;;;;;;;;;38.00;31.00;;;;;6.52;63.87;101202.47;6308626;22;45241;-48
2022/12/03 00:52:06;;;;;;;;;32.50;29.50;;;;;6.54;63.81;101201.63;6309328;22;45146;-48
2022/12/03 00:54:31;;;;;;;;;37.50;28.25;;;;;6.56;63.88;101201.63;6307941;22;45476;-50
2022/12/03 00:56:57;;;;;;;;;34.75;28.00;;;;;6.55;64.05;101203.34;6308718;22;46282;-48
2022/12/03 00:59:22;;;;;;;;;33.25;32.00;;;;;6.57;63.72;101201.63;6308407;22;45148;-49
2022/12/03 01:01:47;;;;;;;;;34.25;29.25;;;;;6.54;64.40;101199.00;6308915;22;45211;-48
2022/12/03 01:04:13;;;;;;;;;39.50;33.00;;;;;6.57;63.74;101200.78;6309133;22;45165;-46
2022/12/03 01:06:38;;;;;;;;;43.00;34.25;;;;;6.54;64.12;101195.50;6309452;22;45171;-47
2022/12/03 01:09:04;;;;;;;;;30.75;27.75;;;;;6.57;63.98;101201.63;6309310;22;45284;-50
2022/12/03 01:11:38;;;;;;;;;31.75;30.25;;;;;6.56;63.86;101188.56;6309271;22;45167;-46
2022/12/03 01:14:10;;;;;;;;;27.75;22.50;;;;;6.57;63.80;101201.63;6308443;22;45343;-46
2022/12/03 01:16:37;;;;;;;;;39.25;27.75;;;;;6.57;63.74;101191.19;6307350;22;45254;-47
2022/12/03 01:19:04;;;;;;;;;34.00;28.00;;;;;6.58;63.75;101200.78;6309300;22;45443;-49
2022/12/03 01:21:29;;;;;;;;;33.25;28.50;;;;;6.56;63.74;101192.03;6309071;22;45184;-50
2022/12/03 01:23:55;;;;;;;;;41.50;35.00;;;;;6.56;63.72;101191.19;6308942;22;45122;-47
2022/12/03 01:26:20;;;;;;;;;42.00;33.25;;;;;6.59;63.77;101207.75;6308844;22;45251;-43
2022/12/03 01:28:46;;;;;;;;;42.50;34.00;;;;;6.58;63.74;101198.16;6309065;22;45420;-47
2022/12/03 01:33:55;;;;;;;;;28.75;28.75;;;;;6.62;63.75;101204.31;6308927;22;45265;-46
2022/12/03 01:36:21;;;;;;;;;35.25;27.75;;;;;6.62;63.66;101199.94;6310617;22;45217;-49
2022/12/03 01:38:47;;;;;;;;;38.25;27.75;;;;;6.64;63.73;101199.94;6308640;22;45245;-48
2022/12/03 01:41:13;;;;;;;;;39.75;31.25;;;;;6.64;63.91;101203.44;6310399;22;45264;-49
2022/12/03 01:43:39;;;;;;;;;30.50;27.50;;;;;6.64;63.69;101193.00;6308299;22;46052;-47
2022/12/03 01:46:04;;;;;;;;;35.75;30.75;;;;;6.66;63.95;101200.84;6310664;22;46216;-50
2022/12/03 01:48:34;;;;;;;;;34.50;32.00;;;;;6.66;63.75;101201.72;6310856;22;45192;-50
2022/12/03 01:51:00;;;;;;;;;32.50;27.00;;;;;6.65;63.67;101193.88;6308497;22;45188;-49
2022/12/03 01:53:25;;;;;;;;;31.25;29.25;;;;;6.66;63.95;101206.06;6310314;22;45171;-47
2022/12/03 01:55:51;;;;;;;;;35.75;27.75;;;;;6.65;63.74;101193.88;6310348;22;45582;-48
2022/12/03 01:58:24;;;;;;;;;27.25;24.00;;;;;6.64;63.85;101202.56;6310665;22;45320;-45
2022/12/03 02:00:49;;;;;;;;;34.00;29.75;;;;;6.65;63.74;101206.94;6310404;22;45193;-45
2022/12/03 02:03:19;;;;;;;;;26.50;22.75;;;;;6.63;63.77;101193.88;6310714;22;45517;-46
2022/12/03 02:05:45;;;;;;;;;29.75;26.50;;;;;6.64;63.75;101200.84;6309674;22;45831;-46
2022/12/03 02:08:31;;;;;;;;;35.75;29.00;;;;;6.65;63.70;101193.88;6308509;22;45275;-48
2022/12/03 02:11:00;;;;;;;;;32.75;24.50;;;;;6.65;63.70;101199.09;6310322;22;45227;-45
2022/12/03 02:13:25;;;;;;;;;35.25;28.50;;;;;6.65;63.73;101199.09;6309964;22;45215;-47
2022/12/03 02:15:51;;;;;;;;;31.75;25.75;;;;;6.63;63.68;101193.00;6308838;22;46303;-47
2022/12/03 02:18:17;;;;;;;;;34.50;29.75;;;;;6.66;63.71;101190.41;6310418;22;45336;-46
2022/12/03 02:21:26;;;;;;;;;32.50;29.25;;;;;6.67;63.69;101193.03;6310333;22;45181;-46
2022/12/03 02:24:10;;;;;;;;;28.00;24.75;;;;;6.65;63.62;101188.66;6309823;22;45155;-49
2022/12/03 02:26:35;;;;;;;;;35.25;30.75;;;;;6.65;63.57;101191.25;6309874;22;45317;-47
2022/12/03 02:29:01;;;;;;;;;33.75;27.25;;;;;6.57;63.59;101174.66;6310284;22;45244;-49
2022/12/03 02:31:26;;;;;;;;;30.25;26.00;;;;;6.65;63.88;101191.25;6310689;22;45155;-47
2022/12/03 02:33:52;;;;;;;;;36.25;28.00;;;;;6.57;63.54;101185.97;6309588;22;45157;-50
2022/12/03 02:36:18;;;;;;;;;30.00;27.25;;;;;6.64;63.66;101194.72;6308608;22;45239;-49
2022/12/03 02:38:46;;;;;;;;;34.00;29.25;;;;;6.64;63.46;101195.63;6310394;22;45247;-47
2022/12/03 02:42:33;;;;;;;;;34.50;31.00;;;;;6.62;63.66;101192.09;6310005;22;45460;-45
2022/12/03 02:44:04;;;;;;;;;32.00;24.50;;;;;6.60;63.58;101191.22;6307990;22;45402;-48
2022/12/03 02:46:30;;;;;;;;;31.25;30.00;;;;;6.63;63.64;101191.25;6309899;22;45306;-45
2022/12/03 02:48:56;;;;;;;;;32.50;28.25;;;;;6.59;63.60;101185.97;6310014;22;45576;-48
2022/12/03 02:51:22;;;;;;;;;27.25;26.00;;;;;6.59;63.50;101185.97;6308502;22;45240;-48
2022/12/03 02:53:50;;;;;;;;;32.50;31.75;;;;;6.62;63.51;101189.50;6310056;22;45242;-47
2022/12/03 02:56:20;;;;;;;;;34.50;31.50;;;;;6.61;63.57;101187.72;6309748;22;46144;-47
2022/12/03 02:58:48;;;;;;;;;33.75;30.75;;;;;6.60;63.55;101187.72;6310417;22;45416;-47
2022/12/03 03:01:14;;;;;;;;;41.75;35.25;;;;;6.62;63.66;101194.72;6309892;22;45262;-47
2022/12/03 03:03:40;;;;;;;;;33.25;28.50;;;;;6.62;63.68;101189.50;6309989;22;45331;-46
2022/12/03 03:06:07;;;;;;;;;39.00;32.50;;;;;6.61;63.50;101185.13;6309894;22;45245;-47
2022/12/03 03:08:33;;;;;;;;;39.50;30.75;;;;;6.61;63.59;101181.66;6310382;22;45082;-47
2022/12/03 03:11:01;;;;;;;;;32.00;27.75;;;;;6.61;63.79;101181.66;6310027;22;45230;-48
2022/12/03 03:13:28;;;;;;;;;34.50;28.00;;;;;6.60;63.46;101187.72;6310034;22;45417;-47
2022/12/03 03:15:53;;;;;;;;;45.50;35.00;;;;;6.58;63.52;101181.59;6310096;22;46122;-49
2022/12/03 03:18:18;;;;;;;;;34.00;30.00;;;;;6.59;63.56;101185.97;6310388;22;45257;-50
2022/12/03 03:20:44;;;;;;;;;35.50;31.25;;;;;6.58;63.54;101187.72;6310104;22;45278;-47
2022/12/03 03:23:09;;;;;;;;;43.25;34.75;;;;;6.57;63.50;101183.34;6309819;22;45360;-51
2022/12/03 03:25:36;;;;;;;;;31.00;27.50;;;;;6.58;63.55;101184.22;6309316;22;45422;-50
2022/12/03 03:28:02;;;;;;;;;35.00;30.25;;;;;6.55;63.63;101179.84;6309951;22;45167;-48
2022/12/03 03:30:27;;;;;;;;;34.00;29.25;;;;;6.53;63.52;101168.53;6310281;22;45322;-46
2022/12/03 03:32:53;;;;;;;;;37.25;33.25;;;;;6.54;63.54;101170.28;6310069;22;45216;-48
2022/12/03 03:35:19;;;;;;;;;34.75;30.75;;;;;6.56;63.71;101173.75;6333940;22;47096;-50
2022/12/03 03:37:44;;;;;;;;;41.50;35.25;;;;;6.56;63.67;101181.59;6310100;22;45228;-48
2022/12/03 03:40:10;;;;;;;;;46.00;35.25;;;;;6.57;63.49;101185.09;6309809;22;45212;-47
2022/12/03 03:42:37;;;;;;;;;33.25;31.75;;;;;6.56;63.73;101184.22;6309885;22;45295;-47
2022/12/03 03:45:03;;;;;;;;;39.00;35.25;;;;;6.54;63.37;101185.94;6309618;22;46029;-47
2022/12/03 03:47:28;;;;;;;;;34.50;27.25;;;;;6.54;63.56;101191.16;6309494;22;45325;-47
2022/12/03 03:49:54;;;;;;;;;45.50;35.25;;;;;6.53;63.48;101191.13;6309846;22;45259;-48
2022/12/03 03:52:19;;;;;;;;;36.50;32.00;;;;;6.55;63.52;101197.25;6309561;22;45354;-48
2022/12/03 03:54:46;;;;;;;;;37.50;32.00;;;;;6.49;63.54;101179.78;6309372;22;45764;-51
2022/12/03 03:57:11;;;;;;;;;41.25;34.50;;;;;6.55;63.70;101192.03;6309799;22;45234;-47
2022/12/03 03:59:37;;;;;;;;;36.75;34.25;;;;;6.57;63.56;101187.72;6310155;22;45451;-48
2022/12/03 04:02:02;;;;;;;;;39.00;31.75;;;;;6.55;63.54;101181.59;6309216;22;45476;-51
2022/12/03 04:04:33;;;;;;;;;41.00;35.25;;;;;6.56;63.25;101188.56;6308449;22;46222;-50
2022/12/03 04:06:58;;;;;;;;;38.25;32.25;;;;;6.56;63.52;101185.97;6308891;22;45325;-48
2022/12/03 04:09:24;;;;;;;;;36.25;31.75;;;;;6.54;63.38;101179.84;6310220;22;45321;-47
2022/12/03 04:14:33;;;;;;;;;34.00;30.25;;;;;6.55;63.40;101171.16;6309584;22;45291;-48
2022/12/03 04:16:58;;;;;;;;;41.25;35.00;;;;;6.55;63.42;101164.16;6309614;22;45289;-48
2022/12/03 04:19:24;;;;;;;;;39.00;33.25;;;;;6.56;63.55;101176.38;6307750;22;45340;-50
2022/12/03 04:24:33;;;;;;;;;34.75;31.50;;;;;6.57;63.56;101172.03;6309556;22;45739;-46
2022/12/03 04:29:42;;;;;;;;;42.00;35.25;;;;;6.55;63.40;101163.31;6309610;22;45302;-46
2022/12/03 04:37:52;;;;;;;;;41.50;35.25;;;;;6.54;63.35;101164.16;6306409;22;45469;-50
2022/12/03 04:43:02;;;;;;;;;46.50;33.75;;;;;6.53;63.47;101163.31;6309433;22;45359;-50
2022/12/03 04:45:27;;;;;;;;;34.50;27.75;;;;;6.53;63.35;101163.31;6309451;22;46030;-45
2022/12/03 04:47:52;;;;;;;;;40.00;30.75;;;;;6.53;63.36;101157.19;6309854;22;45171;-51
2022/12/03 04:50:18;;;;;;;;;40.50;32.50;;;;;6.54;63.35;101153.72;6307570;22;45181;-47
2022/12/03 04:52:43;;;;;;;;;42.25;35.50;;;;;6.47;63.39;101145.84;6309455;22;45393;-47
2022/12/03 04:55:08;;;;;;;;;32.25;27.50;;;;;6.52;63.26;101163.28;6309423;22;45164;-47
2022/12/03 04:57:34;;;;;;;;;37.75;29.75;;;;;6.52;63.25;101158.94;6309589;22;45171;-50
2022/12/03 04:59:59;;;;;;;;;32.25;27.25;;;;;6.52;63.28;101158.06;6309722;22;45081;-49
2022/12/03 05:02:24;;;;;;;;;25.50;23.25;;;;;6.51;63.17;101154.56;6309712;22;45229;-50
2022/12/03 05:04:49;;;;;;;;;38.25;34.00;;;;;6.49;63.20;101154.56;6309764;22;46134;-50
2022/12/03 05:07:15;;;;;;;;;28.75;24.00;;;;;6.47;63.33;101152.81;6310099;22;45225;-50
2022/12/03 05:09:40;;;;;;;;;26.75;23.50;;;;;6.48;63.14;101150.19;6310497;22;45139;-51
2022/12/03 05:12:05;;;;;;;;;29.25;26.00;;;;;6.47;63.25;101158.88;6308791;22;45145;-47
2022/12/03 05:14:31;;;;;;;;;31.00;26.25;;;;;6.47;63.22;101155.41;6310596;22;45351;-47
2022/12/03 05:16:56;;;;;;;;;35.25;29.50;;;;;6.45;63.43;101154.50;6310912;22;45196;-47
2022/12/03 05:20:40;;;;;;;;;29.75;26.25;;;;;6.40;63.36;101146.66;6310932;22;45281;-47
2022/12/03 05:22:07;;;;;;;;;32.00;26.50;;;;;6.41;63.20;101158.81;6310044;22;45361;-46
2022/12/03 05:24:32;;;;;;;;;32.50;28.25;;;;;6.41;63.31;101166.66;6307200;22;53489;-46
2022/12/03 05:26:57;;;;;;;;;37.00;33.00;;;;;6.43;63.30;101170.16;6310522;22;45309;-49
2022/12/03 05:29:23;;;;;;;;;34.75;29.75;;;;;6.42;63.19;101160.56;6310710;22;45192;-47
2022/12/03 05:31:48;;;;;;;;;35.75;30.75;;;;;6.41;63.17;101155.34;6310519;22;49034;-50
2022/12/03 05:34:13;;;;;;;;;28.75;25.75;;;;;6.43;63.17;101166.69;6310232;22;45235;-49
2022/12/03 05:36:38;;;;;;;;;32.50;26.50;;;;;6.41;63.02;101158.81;6308870;22;48215;-48
2022/12/03 05:39:04;;;;;;;;;30.00;27.00;;;;;6.41;63.19;101156.22;6311201;22;45219;-46
2022/12/03 05:44:13;;;;;;;;;37.50;33.25;;;;;6.40;63.12;101153.59;6310342;22;45269;-47
2022/12/03 05:46:38;;;;;;;;;33.25;28.50;;;;;6.40;63.16;101156.19;6310788;22;45333;-49
2022/12/03 05:49:04;;;;;;;;;33.75;28.25;;;;;6.43;63.14;101151.91;6310617;22;45269;-47
2022/12/03 05:51:29;;;;;;;;;34.25;27.25;;;;;6.44;63.00;101161.47;6310755;22;45244;-49
2022/12/03 05:53:54;;;;;;;;;26.25;24.50;;;;;6.44;63.18;101152.75;6310544;22;45239;-50
2022/12/03 05:56:19;;;;;;;;;31.75;26.75;;;;;6.43;62.69;101146.66;6308921;22;45288;-49
2022/12/03 05:58:45;;;;;;;;;24.75;23.25;;;;;6.45;63.23;101142.34;6311025;22;45258;-49
2022/12/03 06:01:10;;;;;;;;;33.00;26.75;;;;;6.42;63.02;101137.09;6310633;22;45178;-47
2022/12/03 06:03:35;;;;;;;;;27.75;23.25;;;;;6.44;63.06;101153.66;6309826;22;45241;-48
2022/12/03 06:06:01;;;;;;;;;28.25;26.75;;;;;6.44;62.99;101152.75;6310868;22;45555;-47
2022/12/03 06:08:26;;;;;;;;;34.75;28.75;;;;;6.44;62.88;101153.66;6310848;22;45207;-47
2022/12/03 06:10:51;;;;;;;;;32.75;27.25;;;;;6.40;63.01;101149.28;6310741;22;45247;-49
2022/12/03 06:13:17;;;;;;;;;32.50;25.75;;;;;6.44;62.82;101153.66;6310252;22;46231;-48
2022/12/03 06:15:42;;;;;;;;;31.00;27.75;;;;;6.43;63.03;101145.81;6309895;22;45161;-46
2022/12/03 06:18:07;;;;;;;;;31.00;24.75;;;;;6.41;62.89;101142.28;6310841;22;45144;-48
2022/12/03 06:20:33;;;;;;;;;27.50;22.75;;;;;6.43;63.01;101148.41;6310111;22;45163;-48
2022/12/03 06:22:58;;;;;;;;;25.25;22.50;;;;;6.41;63.04;101143.16;6310258;22;45203;-47
2022/12/03 06:25:23;;;;;;;;;36.00;27.25;;;;;6.43;63.04;101149.28;6310076;22;45227;-47
2022/12/03 06:27:49;;;;;;;;;26.75;25.25;;;;;6.42;62.88;101155.34;6309960;22;45674;-49
2022/12/03 06:30:14;;;;;;;;;26.75;22.50;;;;;6.40;62.84;101144.03;6310233;22;48563;-46
2022/12/03 06:32:39;;;;;;;;;24.75;20.25;;;;;6.40;62.84;101144.03;6310332;22;45449;-46
2022/12/03 06:35:05;;;;;;;;;37.50;27.75;;;;;6.40;63.00;101149.28;6309849;22;45278;-48
2022/12/03 06:37:30;;;;;;;;;21.75;20.50;;;;;6.38;62.92;101144.84;6309138;22;45164;-49
2022/12/03 06:39:56;;;;;;;;;23.50;20.75;;;;;6.40;62.84;101151.88;6310314;22;45082;-48
2022/12/03 06:42:21;;;;;;;;;30.50;24.75;;;;;6.39;62.65;101152.72;6310311;22;48420;-49
2022/12/03 06:44:46;;;;;;;;;21.25;19.75;;;;;6.36;62.73;101152.69;6309921;22;45184;-46
2022/12/03 06:47:12;;;;;;;;;34.75;26.25;;;;;6.37;62.82;101157.06;6310617;22;45397;-46
2022/12/03 06:49:37;;;;;;;;;27.50;25.00;;;;;6.36;62.44;101157.91;6310153;22;45330;-46
2022/12/03 06:52:02;;;;;;;;;31.00;27.00;;;;;6.36;62.98;101155.28;6310323;22;45365;-47
2022/12/03 06:54:28;;;;;;;;;30.00;22.75;;;;;6.36;62.90;101162.25;6310105;22;45269;-49
2022/12/03 06:56:53;;;;;;;;;30.00;26.75;;;;;6.36;62.65;101165.75;6310325;22;45226;-50
2022/12/03 06:59:18;;;;;;;;;21.25;19.00;;;;;6.37;62.71;101164.03;6309916;22;45392;-48
2022/12/03 07:01:43;;;;;;;;;26.00;20.75;;;;;6.37;62.83;101158.81;6309721;22;46869;-46
2022/12/03 07:04:09;;;;;;;;;27.25;23.75;;;;;6.37;62.58;101153.56;6309774;22;45298;-48
2022/12/03 07:06:34;;;;;;;;;27.25;22.00;;;;;6.36;62.60;101160.50;6310649;22;45259;-46
2022/12/03 07:08:59;;;;;;;;;29.00;22.50;;;;;6.37;62.55;101159.66;6308265;22;45553;-46
2022/12/03 07:11:31;;;;;;;;;28.00;24.50;;;;;6.36;62.58;101157.91;6307861;22;47265;-48
2022/12/03 07:14:01;;;;;;;;;28.00;22.25;;;;;6.37;62.86;101154.44;6309976;22;45327;-47
2022/12/03 07:16:27;;;;;;;;;20.75;20.25;;;;;6.37;62.66;101148.34;6310464;22;45254;-46
2022/12/03 07:18:52;;;;;;;;;25.50;21.25;;;;;6.37;62.63;101151.81;6309687;22;46003;-49
2022/12/03 07:21:18;;;;;;;;;26.00;23.75;;;;;6.37;62.68;101153.56;6310421;22;45215;-47
2022/12/03 07:23:43;;;;;;;;;26.25;24.75;;;;;6.36;62.64;101155.28;6309576;22;45101;-47
2022/12/03 07:26:09;;;;;;;;;30.50;26.75;;;;;6.37;62.49;101150.97;6310114;22;45199;-46
2022/12/03 07:28:34;;;;;;;;;31.75;26.25;;;;;6.36;62.66;101152.69;6307975;22;45163;-49
2022/12/03 07:30:59;;;;;;;;;33.25;30.00;;;;;6.36;62.71;101155.28;6310038;22;46996;-48
2022/12/03 07:33:25;;;;;;;;;31.25;26.50;;;;;6.37;62.50;101161.41;6309484;22;45471;-50
2022/12/03 07:35:50;;;;;;;;;28.25;25.50;;;;;6.38;62.65;101158.81;6310065;22;45152;-46
2022/12/03 07:38:15;;;;;;;;;27.25;25.25;;;;;6.38;62.58;101165.75;6310090;22;45497;-48
2022/12/03 07:40:41;;;;;;;;;32.25;24.75;;;;;6.35;62.50;101169.19;6309883;22;45853;-54
2022/12/03 07:43:06;;;;;;;;;29.50;26.25;;;;;6.36;62.49;101163.13;6310239;22;45261;-51
2022/12/03 07:45:31;;;;;;;;;30.50;26.50;;;;;6.38;62.62;101176.19;6310078;22;45204;-53
2022/12/03 07:47:57;;;;;;;;;28.50;27.25;;;;;6.37;62.65;101167.50;6309937;22;45416;-53
2022/12/03 07:50:22;;;;;;;;;33.25;24.50;;;;;6.36;62.51;101173.56;6309829;22;45278;-45
2022/12/03 07:52:47;;;;;;;;;30.75;25.25;;;;;6.37;62.53;101171.84;6309283;22;45286;-50
2022/12/03 07:55:13;;;;;;;;;28.00;26.75;;;;;6.39;62.62;101173.63;6310364;22;45380;-50
2022/12/03 07:57:38;;;;;;;;;29.25;27.00;;;;;6.41;62.44;101181.47;6309893;22;45196;-49
2022/12/03 08:00:05;;;;;;;;;31.50;25.25;;;;;6.40;62.67;101172.75;6307951;22;46855;-46
2022/12/03 08:02:30;;;;;;;;;25.50;21.00;;;;;6.40;62.63;101172.75;6309750;22;45732;-49
2022/12/03 08:04:56;;;;;;;;;29.25;25.75;;;;;6.38;62.39;101160.53;6309726;22;45333;-49
2022/12/03 08:07:21;;;;;;;;;25.75;23.00;;;;;6.41;62.39;101168.41;6309685;22;45444;-53
2022/12/03 08:09:46;;;;;;;;;30.25;24.25;;;;;6.40;62.61;101170.16;6310185;22;45130;-48
2022/12/03 08:12:16;;;;;;;;;26.00;22.75;;;;;6.41;62.49;101174.47;6308584;22;45220;-51
2022/12/03 08:14:41;;;;;;;;;32.50;28.25;;;;;6.43;62.57;101169.31;6310037;22;45305;-52
2022/12/03 08:17:13;;;;;;;;;25.25;22.00;;;;;6.43;62.54;101164.09;6309533;22;45269;-54
2022/12/03 08:19:45;;;;;;;;;40.25;34.00;;;;;6.44;62.45;101153.66;6309653;22;45275;-49
2022/12/03 08:22:12;;;;;;;;;32.25;26.75;;;;;6.44;62.45;101148.44;6310121;22;45257;-54
2022/12/03 08:24:38;;;;;;;;;24.50;23.75;;;;;6.45;62.79;101149.28;6309388;22;45398;-49
2022/12/03 08:27:13;;;;;;;;;32.25;29.25;;;;;6.45;62.60;101150.19;6309793;22;45096;-51
2022/12/03 08:29:39;;;;;;;;;36.50;25.50;;;;;6.45;62.32;101147.56;6309207;22;47557;-54
2022/12/03 08:32:05;;;;;;;;;34.25;29.75;;;;;6.48;62.61;101159.78;6309750;22;45246;-52
2022/12/03 08:34:39;;;;;;;;;24.75;24.00;;;;;6.48;62.46;101158.03;6309579;22;45248;-52
2022/12/03 08:37:15;;;;;;;;;30.25;25.50;;;;;6.50;62.77;101166.75;6309750;22;45162;-51
2022/12/03 08:39:45;;;;;;;;;30.00;27.00;;;;;6.51;62.38;101159.78;6306944;22;47239;-57
2022/12/03 08:42:40;;;;;;;;;35.25;28.25;;;;;6.52;62.09;101155.47;6304089;22;45416;-56
2022/12/03 08:45:27;;;;;;;;;32.75;29.00;;;;;6.53;62.63;101159.81;6305074;22;45322;-51
2022/12/03 08:47:58;;;;;;;;;36.25;28.75;;;;;6.53;62.58;101168.53;6309542;22;45152;-53
2022/12/03 08:50:29;;;;;;;;;40.75;35.75;;;;;6.53;62.58;101165.91;6309068;22;45309;-50
2022/12/03 08:53:24;;;;;;;;;40.25;30.25;;;;;6.52;62.51;101155.47;6309203;22;45227;-55
2022/12/03 08:55:58;;;;;;;;;25.50;24.00;;;;;6.55;62.45;101169.41;6282921;22;45305;-53
2022/12/03 08:58:33;;;;;;;;;31.50;27.75;;;;;6.56;62.37;101165.06;6309287;22;45199;-53
2022/12/03 09:01:29;;;;;;;;;32.00;25.00;;;;;6.57;62.64;101161.59;6308986;22;45967;-52
2022/12/03 09:04:01;;;;;;;;;31.25;28.00;;;;;6.58;62.42;101163.31;6294767;22;45260;-49
2022/12/03 09:06:26;;;;;;;;;28.00;25.00;;;;;6.59;62.56;101162.47;6309809;22;45319;-47
2022/12/03 09:08:51;;;;;;;;;38.25;32.50;;;;;6.58;62.36;101171.16;6307358;22;45200;-57
2022/12/03 09:11:17;;;;;;;;;33.50;27.00;;;;;6.59;62.35;101163.38;6308017;22;45996;-47
2022/12/03 09:13:42;;;;;;;;;38.50;32.75;;;;;6.60;62.50;101166.84;6309077;22;45183;-47
2022/12/03 09:16:07;;;;;;;;;38.00;28.25;;;;;6.61;62.50;101163.38;6309693;22;45196;-49
2022/12/03 09:18:33;;;;;;;;;26.25;22.00;;;;;6.60;62.43;101165.13;6308843;22;45172;-53
2022/12/03 09:20:58;;;;;;;;;30.50;27.75;;;;;6.61;62.60;101165.97;6309329;22;45234;-49
2022/12/03 09:23:23;;;;;;;;;34.25;31.50;;;;;6.62;62.26;101168.59;6308565;22;46660;-50
2022/12/03 09:25:49;;;;;;;;;30.75;29.50;;;;;6.64;62.37;101171.22;6308968;22;45331;-49
2022/12/03 09:28:14;;;;;;;;;44.50;33.25;;;;;6.65;62.50;101172.97;6308341;22;45400;-46
2022/12/03 09:30:39;;;;;;;;;38.25;32.50;;;;;6.65;62.54;101171.25;6308772;22;45188;-50
2022/12/03 09:33:05;;;;;;;;;29.75;28.00;;;;;6.66;62.43;101174.72;6308122;22;45273;-48
2022/12/03 09:35:30;;;;;;;;;29.00;24.75;;;;;6.64;62.28;101177.34;6308018;22;45219;-46
2022/12/03 09:37:55;;;;;;;;;33.00;27.25;;;;;6.66;62.25;101172.97;6308888;22;45098;-46
2022/12/03 09:40:21;;;;;;;;;34.00;29.50;;;;;6.68;62.28;101170.41;6309018;22;45153;-46
2022/12/03 09:42:47;;;;;;;;;33.50;31.25;;;;;6.68;62.42;101165.19;6308786;22;45318;-49
2022/12/03 09:45:14;;;;;;;;;32.75;28.00;;;;;6.68;62.49;101167.78;6302835;22;45480;-46
2022/12/03 09:47:44;;;;;;;;;38.50;31.25;;;;;6.65;62.29;101160.81;6308979;22;45270;-48
2022/12/03 09:50:20;;;;;;;;;27.25;24.25;;;;;6.69;62.38;101159.06;6308128;22;45221;-49
2022/12/03 09:52:48;;;;;;;;;33.25;29.75;;;;;6.70;62.26;101158.22;6310125;22;45267;-51
2022/12/03 09:55:17;;;;;;;;;33.25;29.75;;;;;6.70;62.22;101149.50;6309858;22;45676;-49
2022/12/03 09:57:42;;;;;;;;;29.00;26.50;;;;;6.71;62.30;101157.34;6310081;22;45335;-47
2022/12/03 10:00:28;;;;;;;;;38.00;29.75;;;;;6.75;62.39;101160.88;6309156;22;46022;-46
2022/12/03 10:02:57;;;;;;;;;32.50;29.75;;;;;6.76;62.34;101158.25;6310586;22;45263;-48
2022/12/03 10:05:23;;;;;;;;;30.50;25.75;;;;;6.79;62.15;101153.09;6309618;22;45238;-46
2022/12/03 10:07:50;;;;;;;;;43.00;31.75;;;;;6.83;62.37;101147.00;6309871;22;45319;-51
2022/12/03 10:10:19;;;;;;;;;29.75;26.50;;;;;6.82;61.91;101144.41;6308157;22;45907;-45
2022/12/03 10:12:44;;;;;;;;;33.25;28.50;;;;;6.86;62.47;101145.28;6308197;22;45425;-47
2022/12/03 10:15:16;;;;;;;;;33.50;29.25;;;;;6.87;62.49;101136.56;6303966;22;45247;-48
2022/12/03 10:17:41;;;;;;;;;32.00;27.00;;;;;6.88;62.64;101123.53;6310080;22;45400;-47
2022/12/03 10:20:11;;;;;;;;;28.25;26.50;;;;;6.91;62.54;101127.91;6309741;22;46087;-44
2022/12/03 10:22:37;;;;;;;;;30.00;25.50;;;;;6.93;62.38;101120.94;6308870;22;45859;-44
2022/12/03 10:25:11;;;;;;;;;31.75;29.50;;;;;6.97;62.75;101118.38;6309554;22;45232;-45
2022/12/03 10:27:38;;;;;;;;;30.75;29.00;;;;;6.96;62.56;101113.13;6309337;22;45385;-44
2022/12/03 10:30:16;;;;;;;;;34.50;29.75;;;;;6.99;62.52;101124.50;6310144;22;45934;-44
2022/12/03 10:32:45;;;;;;;;;39.25;33.25;;;;;7.01;62.72;101121.88;6308462;22;45258;-45
2022/12/03 10:35:21;;;;;;;;;34.50;30.75;;;;;7.04;62.71;101129.72;6309728;22;45402;-45
2022/12/03 10:38:09;;;;;;;;;30.25;26.50;;;;;7.07;62.53;101131.47;6309535;22;45278;-45
2022/12/03 10:40:36;;;;;;;;;36.00;32.75;;;;;7.07;62.41;101124.53;6309842;22;46267;-47
2022/12/03 10:43:13;;;;;;;;;29.25;28.00;;;;;7.04;62.56;101116.66;6308612;22;45317;-45
2022/12/03 10:45:38;;;;;;;;;24.50;21.25;;;;;7.07;62.52;101119.31;6306449;22;45591;-48
2022/12/03 10:48:14;;;;;;;;;23.50;20.25;;;;;7.08;62.55;101123.69;6309770;22;45453;-46
2022/12/03 10:50:47;;;;;;;;;29.50;24.50;;;;;7.07;62.44;101118.41;6309868;22;46046;-46
2022/12/03 10:53:12;;;;;;;;;28.25;24.00;;;;;7.07;62.47;101121.03;6309823;22;45255;-45
2022/12/03 10:55:40;;;;;;;;;26.25;23.25;;;;;7.06;62.14;101111.47;6309888;22;45318;-47
2022/12/03 10:58:20;;;;;;;;;33.25;28.00;;;;;7.04;62.25;101115.78;6309538;22;45326;-47
2022/12/03 11:00:46;;;;;;;;;28.25;27.00;;;;;7.05;62.23;101112.31;6309970;22;45301;-49
2022/12/03 11:03:21;;;;;;;;;30.25;24.50;;;;;7.04;62.30;101108.81;6309923;22;45548;-45
2022/12/03 11:05:46;;;;;;;;;27.50;24.50;;;;;7.05;62.43;101101.88;6309638;22;45255;-44
2022/12/03 11:08:21;;;;;;;;;28.50;27.25;;;;;7.04;62.22;101093.13;6309896;22;45234;-47
2022/12/03 11:11:02;;;;;;;;;31.00;25.00;;;;;7.02;62.08;101092.28;6310282;22;46398;-44
2022/12/03 11:13:33;;;;;;;;;28.25;23.00;;;;;7.03;62.38;101098.38;6307467;22;45459;-44
2022/12/03 11:15:59;;;;;;;;;28.00;26.00;;;;;6.99;62.12;101092.25;6307063;22;45369;-45
2022/12/03 11:18:45;;;;;;;;;25.00;22.25;;;;;7.02;62.01;101094.88;6309205;22;45450;-46
2022/12/03 11:21:12;;;;;;;;;24.75;22.75;;;;;6.99;62.13;101095.75;6309748;22;45252;-45
2022/12/03 11:23:43;;;;;;;;;24.75;24.75;;;;;7.02;62.38;101091.38;6308907;22;45274;-43
2022/12/03 11:26:10;;;;;;;;;25.75;20.75;;;;;6.97;61.71;101079.16;6310147;22;45382;-44
2022/12/03 11:28:37;;;;;;;;;21.75;19.75;;;;;6.99;62.11;101085.28;6309958;22;45402;-43
2022/12/03 11:31:10;;;;;;;;;25.25;23.00;;;;;7.00;61.99;101083.53;6309707;22;47090;-44
2022/12/03 11:33:39;;;;;;;;;20.75;19.00;;;;;6.99;62.40;101089.63;6309379;22;45407;-44
2022/12/03 11:36:04;;;;;;;;;23.00;20.50;;;;;7.00;62.00;101087.00;6309694;22;45325;-41
2022/12/03 11:38:35;;;;;;;;;23.50;19.50;;;;;7.04;62.06;101082.69;6309366;22;45234;-41
2022/12/03 11:41:10;;;;;;;;;29.25;22.25;;;;;7.07;62.19;101081.81;6309899;22;45168;-41